Flight Track Log - Related Links

Times and Time Zones

All times are in EDT time to prevent confusion due to time zone crossing. See the EJA922 flight status page for this flight to view local times or setup timezone preferences in your user account.

Time Position Orientation Groundspeed Altitude Reporting Facility
EDT Latitude Longitude Course Direction KTS MPH feet Rate Location/Type
Sun 05:00:29 PM 42.1622 -86.9442 92° East 441 507 21,400  Level Chicago Center
Sun 05:01:31 PM 42.1583 -86.7722 92° East 455 524 23,400 1,839 Climbing Chicago Center
Sun 05:02:33 PM 42.1558 -86.5617 91° East 465 535 25,200 1,488 Climbing Chicago Center
Sun 05:03:36 PM 42.1503 -86.3817 92° East 477 549 26,500 1,296 Climbing Chicago Center
Sun 05:04:38 PM 42.1458 -86.2003 92° East 485 558 27,900 1,161 Climbing Chicago Center
Sun 05:05:40 PM 42.1425 -86.0131 91° East 496 571 28,900 1,161 Climbing Chicago Center
Sun 05:06:42 PM 42.1408 -85.8325 91° East 502 578 30,300 2,032 Climbing Chicago Center
Sun 05:07:44 PM 42.1394 -85.5972 90° East 523 602 33,100 2,371 Climbing Chicago Center
Sun 05:08:46 PM 42.1378 -85.4064 91° East 519 597 35,200 1,500 Climbing Chicago Center
Sun 05:09:48 PM 42.1361 -85.2211 91° East 505 581 36,200 968 Climbing Chicago Center
Sun 05:10:50 PM 42.1344 -85.0294 91° East 512 589 37,200 968 Climbing Chicago Center
Sun 05:11:52 PM 42.1458 -84.8392 85° East 513 590 38,200 871 Climbing Chicago Center
Sun 05:12:54 PM 42.1597 -84.6117 85° East 511 588 39,000 384 Climbing Chicago Center
Sun 05:13:57 PM 42.1567 -84.4169 91° East 519 597 39,000  Level Chicago Center
Sun 05:14:45 PM 42.1494 -84.2494 93° East 517 595 39,000  Level Cleveland Center
Sun 05:15:45 PM 42.1475 -84.0478 91° East 527 606 39,000  Level Cleveland Center
Sun 05:16:45 PM 42.1428 -83.8486 92° East 532 612 39,000  Level Cleveland Center
Sun 05:17:45 PM 42.1381 -83.6411 92° East 544 626 39,000  Level Cleveland Center
Sun 05:18:45 PM 42.1347 -83.4533 91° East 553 636 39,000  Level Cleveland Center
Sun 05:19:45 PM 42.1292 -83.2486 92° East 548 631 39,000  Level Cleveland Center
Sun 05:20:45 PM 42.1233 -83.0411 92° East 548 631 39,000  Level Cleveland Center
Sun 05:21:45 PM 42.1172 -82.8367 92° East 548 631 39,000  Level Cleveland Center
Sun 05:22:45 PM 42.1147 -82.6322 91° East 548 631 39,000  Level Cleveland Center
Sun 05:23:45 PM 42.1078 -82.4275 93° East 548 631 39,000  Level Cleveland Center
Sun 05:24:45 PM 42.0961 -82.2258 94° East 548 631 39,000  Level Cleveland Center
Sun 05:25:45 PM 42.0928 -82.0019 91° East 548 631 39,000  Level Cleveland Center
Sun 05:26:45 PM 42.0828 -81.7975 94° East 548 631 39,000  Level Cleveland Center
Sun 05:27:45 PM 42.0764 -81.5958 92° East 548 631 39,000  Level Cleveland Center
Sun 05:28:45 PM 42.0675 -81.3886 93° East 548 631 39,000  Level Cleveland Center
Sun 05:29:45 PM 42.0606 -81.1844 93° East 543 625 39,000  Level Cleveland Center
Sun 05:30:45 PM 42.0508 -81.0081 94° East 538 619 39,000  Level Cleveland Center
Sun 05:31:45 PM 42.0411 -80.7983 94° East 543 625 39,000  Level Cleveland Center
Sun 05:32:45 PM 42.0308 -80.6000 94° East 538 619 39,000  Level Cleveland Center
Sun 05:33:45 PM 42.0119 -80.4014 97° East 538 619 39,000  Level Cleveland Center
Sun 05:34:45 PM 41.9947 -80.2003 97° East 538 619 39,000  Level Cleveland Center
Sun 05:35:45 PM 41.9753 -79.9994 97° East 538 619 39,000  Level Cleveland Center
Sun 05:36:45 PM 41.9572 -79.8042 97° East 538 619 39,000  Level Cleveland Center
Sun 05:37:45 PM 41.9392 -79.6033 97° East 538 619 39,000  Level Cleveland Center
Sun 05:38:45 PM 41.9186 -79.4028 98° East 538 619 39,000  Level Cleveland Center
Sun 05:39:45 PM 41.8972 -79.1828 97° East 543 625 39,000  Level Cleveland Center
Sun 05:40:45 PM 41.8781 -78.9825 97° East 543 625 39,000  Level Cleveland Center
Sun 05:41:45 PM 41.8586 -78.8044 98° East 543 625 39,000  Level Cleveland Center
Sun 05:42:45 PM 41.8386 -78.6044 98° East 543 625 39,000  Level Cleveland Center
Sun 05:43:45 PM 41.8186 -78.4072 98° East 543 625 39,000 -221 Level Cleveland Center
Sun 05:45:55 PM 41.7719 -77.9689 98° East 545 627 38,300 -691 Descending New York Center
Sun 05:46:56 PM 41.7483 -77.7717 99° East 539 620 36,800 -1,613 Descending New York Center
Sun 05:47:54 PM 41.7281 -77.5806 98° East 534 615 35,100 -1,059 Descending New York Center
Sun 05:48:55 PM 41.7056 -77.3919 99° East 520 598 34,700 -750 Descending New York Center
Sun 05:49:54 PM 41.6828 -77.1981 99° East 520 598 33,600 -1,059 Descending New York Center
Sun 05:50:54 PM 41.6444 -77.0194 106° East 514 592 32,600 -992 Descending New York Center
Sun 05:51:55 PM 41.5950 -76.8456 111° Southeast 503 579 31,600 -942 Descending New York Center
Sun 05:52:55 PM 41.5511 -76.6864 110° East 503 579 30,700 -942 Descending New York Center
Sun 05:53:56 PM 41.5036 -76.5103 110° East 503 579 29,700 -1,109 Descending New York Center
Sun 05:54:54 PM 41.4581 -76.3294 109° East 509 586 28,500 -1,966 Descending New York Center
Sun 05:55:55 PM 41.4003 -76.1364 112° Southeast 515 593 25,800 -2,628 Descending New York Center
Sun 05:56:55 PM 41.3494 -75.9694 112° Southeast 505 581 23,200 -2,479 Descending New York Center
Sun 05:57:56 PM 41.3044 -75.8031 110° East 491 565 20,800 -2,100 Descending New York Center
Sun 05:58:55 PM 41.2494 -75.6719 119° Southeast 467 537 19,000 -900 Descending New York Center
Sun 05:59:56 PM 41.1928 -75.5300 118° Southeast 447 514 19,000 -787 Level New York Center
Sun 06:00:57 PM 41.1428 -75.3694 112° Southeast 428 493 17,400 -2,168 Descending New York Center
Sun 06:01:55 PM 41.1061 -75.2403 111° Southeast 395 455 14,700 -2,824 Descending New York Center
Sun 06:02:56 PM 41.0786 -75.1419 110° East 342 394 11,800 -3,124 Descending New York Center
Sun 06:03:56 PM 41.0511 -75.0386 109° East 303 349 8,400 -2,900 Descending New York Center
Sun 06:04:56 PM 41.0175 -74.9319 113° Southeast 290 334 6,000 -1,412 Descending New York Center
Sun 06:05:55 PM 40.9997 -74.8400 104° East 284 327 5,600 -750 Descending New York Center
Sun 06:06:56 PM 41.0039 -74.7219 87° East 279 321 4,500 -769 Descending New York Center
Sun 06:07:52 PM 41.0000 -74.6167 93° East 282 325 4,100 -207 Descending New York TRACON
Sun 06:08:52 PM 41.0167 -74.5167 78° East 273 314 4,100 -50 Level New York TRACON
Sun 06:09:52 PM 41.0167 -74.4333 90° East 259 298 4,000 -526 Descending New York TRACON
Sun 06:10:46 PM 41.0167 -74.3500 90° East 249 287 3,100 -474 Descending New York TRACON
Sun 06:11:46 PM 41.0167 -74.2667 90° East 214 246 3,100 -381 Level New York TRACON
Sun 06:12:52 PM 41.0167 -74.2000 90° East 168 193 2,300 -500 Descending New York TRACON
Sun 06:13:46 PM 41.0333 -74.1333 72° East 174 200 2,100 -105 Descending New York TRACON
Sun 06:14:46 PM 41.0167 -74.0833 114° Southeast 176 203 2,100  Level New York TRACON
Sun 06:15:52 PM 40.9667 -74.0500 153° Southeast 169 194 2,100 -333 Level New York TRACON
Sun 06:16:52 PM 40.9167 -74.0500 180° South 170 196 1,400 -700 Descending New York TRACON
Sun 06:17:52 PM 40.8833 -74.0500 180° South 121 139 700 -700 Descending New York TRACON
Sun 06:20:00 PM 40.8500 -74.0500 170° South  Level FlightAware Approximate
Sun 06:27:00 PM 40.8501 -74.0608 170° South  Level Estimated

Login

Don't have an account? Register now (free) for customized features, flight alerts, and more!